Time;durP1;ratioP1;P1;durP2;ratioP2;P2;SDS_P1;SDS_P2;PMS_P1;PMS_P2;Temp;Humidity;BMP_temperature;BMP_pressure;BME280_temperature;BME280_humidity;BME280_pressure;Samples;Min_cycle;Max_cycle;Signal;HPM_P1;HPM_P2
2021/12/04 00:00:10;;;;;;;18.83;7.70;;;;;;;1.45;51.92;99338.25;5093350;28;20127;-73
2021/12/04 00:02:37;;;;;;;20.30;9.07;;;;;;;1.43;52.04;99342.69;5087644;28;20083;-74
2021/12/04 00:05:06;;;;;;;23.63;9.93;;;;;;;1.40;51.96;99341.06;5083000;28;20066;-75
2021/12/04 00:07:35;;;;;;;16.05;9.05;;;;;;;1.43;52.16;99332.28;5085436;28;20396;-75
2021/12/04 00:10:03;;;;;;;22.10;9.13;;;;;;;1.42;52.30;99326.22;5084907;28;20067;-73
2021/12/04 00:12:32;;;;;;;21.38;8.63;;;;;;;1.44;52.14;99318.34;5083856;28;20665;-74
2021/12/04 00:15:01;;;;;;;22.27;7.90;;;;;;;1.44;51.89;99319.22;5083130;28;20083;-75
2021/12/04 00:17:28;;;;;;;17.58;10.70;;;;;;;1.41;52.27;99315.91;5084928;28;20050;-74
2021/12/04 00:19:55;;;;;;;17.42;8.25;;;;;;;1.40;52.38;99322.84;5084955;28;20054;-74
2021/12/04 00:22:22;;;;;;;23.38;8.75;;;;;;;1.38;52.24;99309.09;5084278;28;20072;-73
2021/12/04 00:24:49;;;;;;;25.27;9.50;;;;;;;1.40;52.17;99316.81;5083518;28;20064;-77
2021/12/04 00:27:16;;;;;;;21.45;9.63;;;;;;;1.39;52.21;99307.31;5083935;28;20040;-74
2021/12/04 00:29:43;;;;;;;19.08;9.43;;;;;;;1.39;52.21;99313.38;5083102;28;20051;-74
2021/12/04 00:32:14;;;;;;;15.23;8.32;;;;;;;1.38;52.02;99322.09;5084962;28;20204;-74
2021/12/04 00:34:45;;;;;;;13.45;7.28;;;;;;;1.39;52.20;99321.19;5082522;28;20074;-73
2021/12/04 00:37:33;;;;;;;22.08;8.43;;;;;;;1.40;52.11;99317.66;5084376;28;20182;-75
2021/12/04 00:51:07;;;;;;;19.30;8.20;;;;;;;1.33;52.05;99298.94;5019906;28;20490;-77
2021/12/04 00:53:35;;;;;;;21.55;8.68;;;;;;;1.30;52.09;99300.84;5021422;28;20051;-75
2021/12/04 00:56:02;;;;;;;20.92;10.32;;;;;;;1.28;52.19;99300.06;5021346;28;20045;-76
2021/12/04 00:58:29;;;;;;;19.13;9.15;;;;;;;1.27;52.47;99295.78;5020427;28;20555;-74
2021/12/04 01:00:56;;;;;;;19.05;10.05;;;;;;;1.24;52.27;99282.91;5024083;28;20444;-74
2021/12/04 01:03:24;;;;;;;17.85;9.50;;;;;;;1.19;52.45;99283.16;5024741;28;20041;-74
2021/12/04 01:05:51;;;;;;;26.92;12.02;;;;;;;1.20;52.30;99281.41;5021920;28;20129;-76
2021/12/04 01:08:19;;;;;;;20.85;10.65;;;;;;;1.18;52.45;99278.88;5023520;28;20088;-76
2021/12/04 01:10:46;;;;;;;28.30;10.80;;;;;;;1.18;52.34;99270.22;4975808;28;20085;-76
2021/12/04 01:13:13;;;;;;;26.15;10.77;;;;;;;1.17;52.46;99268.53;5023448;28;20089;-74
2021/12/04 01:15:42;;;;;;;35.05;13.30;;;;;;;1.17;52.50;99263.31;5024462;28;20436;-76
2021/12/04 01:18:09;;;;;;;24.58;10.50;;;;;;;1.18;52.57;99267.63;5023503;28;20176;-73
2021/12/04 01:20:39;;;;;;;23.10;12.88;;;;;;;1.18;52.47;99258.06;5024693;28;20045;-73
2021/12/04 01:23:06;;;;;;;26.50;10.15;;;;;;;1.22;52.37;99251.78;5024414;28;20053;-74
2021/12/04 01:25:34;;;;;;;23.38;10.52;;;;;;;1.23;52.43;99248.28;5023779;28;20444;-74
2021/12/04 01:28:03;;;;;;;25.52;10.90;;;;;;;1.25;52.37;99251.63;5083060;28;20048;-75
2021/12/04 01:30:30;;;;;;;20.90;10.95;;;;;;;1.26;52.32;99242.91;5087454;28;20106;-76
2021/12/04 01:32:57;;;;;;;27.10;11.27;;;;;;;1.27;52.39;99244.59;5086662;28;20048;-74
2021/12/04 01:35:24;;;;;;;24.00;9.65;;;;;;;1.27;52.39;99239.38;5085782;28;20058;-75
2021/12/04 01:37:53;;;;;;;25.10;11.30;;;;;;;1.27;52.46;99228.16;5087738;28;20059;-74
2021/12/04 01:40:20;;;;;;;30.45;10.02;;;;;;;1.27;52.78;99228.16;5086689;28;20048;-74
2021/12/04 01:42:47;;;;;;;31.50;13.95;;;;;;;1.26;52.67;99229.06;5087008;28;20051;-76
2021/12/04 01:45:15;;;;;;;24.05;10.23;;;;;;;1.24;52.47;99229.16;5087211;28;20051;-74
2021/12/04 01:47:42;;;;;;;25.80;12.00;;;;;;;1.22;52.84;99230.97;5086333;28;20510;-73
2021/12/04 01:50:10;;;;;;;22.48;12.00;;;;;;;1.18;52.61;99226.00;5086944;28;20044;-74
2021/12/04 01:52:37;;;;;;;22.60;13.85;;;;;;;1.16;52.69;99222.66;5086693;28;20056;-74
2021/12/04 01:55:07;;;;;;;18.05;11.85;;;;;;;1.15;52.50;99227.00;5086848;28;20408;-74
2021/12/04 01:57:34;;;;;;;23.60;12.60;;;;;;;1.13;52.74;99218.44;5087506;28;20050;-74
2021/12/04 02:00:03;;;;;;;28.08;12.52;;;;;;;1.11;53.02;99209.88;5086987;28;20663;-76
2021/12/04 02:02:30;;;;;;;25.05;13.20;;;;;;;1.13;52.74;99213.22;5086496;28;20105;-76
2021/12/04 02:04:57;;;;;;;24.60;10.95;;;;;;;1.15;52.98;99208.78;5085397;28;20385;-74
2021/12/04 02:07:24;;;;;;;17.85;10.77;;;;;;;1.16;52.83;99207.88;5087148;28;20055;-73
2021/12/04 02:09:51;;;;;;;19.88;9.23;;;;;;;1.20;52.93;99211.16;5086487;28;20044;-73
2021/12/04 02:12:19;;;;;;;26.10;11.77;;;;;;;1.20;52.76;99211.16;5086045;28;20109;-74
2021/12/04 02:14:46;;;;;;;23.63;11.75;;;;;;;1.20;52.90;99206.78;5085955;28;20048;-74
2021/12/04 02:17:13;;;;;;;24.17;11.27;;;;;;;1.23;52.76;99201.44;5086545;28;20054;-74
2021/12/04 02:19:40;;;;;;;18.13;11.07;;;;;;;1.25;52.91;99204.81;5086699;28;20066;-74
2021/12/04 02:22:09;;;;;;;22.85;10.20;;;;;;;1.29;52.90;99200.28;5085578;28;20059;-74
2021/12/04 02:24:36;;;;;;;18.55;9.57;;;;;;;1.31;52.54;99203.66;5086605;28;20123;-75
2021/12/04 02:27:05;;;;;;;26.80;12.10;;;;;;;1.33;52.54;99199.22;5087155;28;20044;-75
2021/12/04 02:29:32;;;;;;;20.48;9.77;;;;;;;1.35;52.48;99210.38;5085447;28;20044;-75
2021/12/04 02:32:00;;;;;;;25.92;11.23;;;;;;;1.33;52.73;99202.66;5086513;28;20044;-76
2021/12/04 02:34:30;;;;;;;20.42;10.60;;;;;;;1.32;52.63;99200.97;5086573;28;20070;-75
2021/12/04 02:37:00;;;;;;;18.48;10.82;;;;;;;1.30;52.64;99204.59;5086308;28;20048;-74
2021/12/04 02:39:31;;;;;;;24.08;12.93;;;;;;;1.28;52.77;99207.25;5086632;28;20048;-76
2021/12/04 02:41:58;;;;;;;20.48;12.35;;;;;;;1.29;52.67;99201.13;5086539;28;20115;-74
2021/12/04 02:44:33;;;;;;;27.58;11.85;;;;;;;1.33;52.86;99197.47;5086464;28;20471;-74
2021/12/04 02:47:00;;;;;;;23.90;11.23;;;;;;;1.38;52.50;99191.19;5086628;28;20068;-74
2021/12/04 02:49:28;;;;;;;27.27;13.38;;;;;;;1.42;52.72;99183.13;5086094;28;20046;-73
2021/12/04 02:51:55;;;;;;;20.73;9.50;;;;;;;1.47;52.46;99164.69;5086129;28;20143;-76
2021/12/04 02:54:22;;;;;;;19.98;10.38;;;;;;;1.52;52.36;99162.69;5086863;28;20048;-76
2021/12/04 02:56:52;;;;;;;19.60;10.57;;;;;;;1.57;52.32;99162.41;5085717;28;20161;-75
2021/12/04 02:59:20;;;;;;;25.60;11.20;;;;;;;1.65;52.29;99166.28;5085940;28;20075;-74
2021/12/04 03:01:47;;;;;;;21.98;12.63;;;;;;;1.70;52.07;99164.28;5086132;28;20213;-74
2021/12/04 03:04:14;;;;;;;22.08;12.07;;;;;;;1.74;52.00;99159.75;5086299;28;20044;-73
2021/12/04 03:06:46;;;;;;;19.83;10.85;;;;;;;1.76;51.96;99157.91;5083822;28;20044;-75
2021/12/04 03:09:13;;;;;;;18.83;10.60;;;;;;;1.80;52.19;99153.38;5085472;28;20090;-74
2021/12/04 03:11:41;;;;;;;19.38;10.25;;;;;;;1.82;52.22;99143.72;5085027;28;20050;-75
2021/12/04 03:14:10;;;;;;;17.65;8.13;;;;;;;1.84;52.11;99141.91;5085026;28;20081;-74
2021/12/04 03:16:41;;;;;;;21.08;9.38;;;;;;;1.82;52.19;99141.97;5085933;28;20044;-75
2021/12/04 03:19:09;;;;;;;21.30;11.52;;;;;;;1.82;52.24;99135.91;5085356;28;20048;-75
2021/12/04 03:21:37;;;;;;;23.90;10.18;;;;;;;1.83;52.18;99128.03;5084542;28;20046;-74
2021/12/04 03:24:07;;;;;;;21.73;9.95;;;;;;;1.84;52.34;99119.31;5085644;28;20081;-74
2021/12/04 03:26:34;;;;;;;24.85;10.85;;;;;;;1.84;52.20;99118.47;5084838;28;20050;-74
2021/12/04 03:29:04;;;;;;;21.85;10.48;;;;;;;1.82;52.32;99109.88;5085286;28;20048;-73
2021/12/04 03:31:45;;;;;;;20.08;10.80;;;;;;;1.80;52.28;99103.91;5086145;28;20067;-73
2021/12/04 03:42:25;;;;;;;17.35;9.02;;;;;;;1.81;52.36;99097.81;5085395;28;20115;-73
2021/12/04 03:44:52;;;;;;;19.88;9.40;;;;;;;1.83;52.61;99090.75;5085845;28;20108;-75
2021/12/04 03:47:22;;;;;;;18.30;10.52;;;;;;;1.85;52.61;99091.50;5084026;28;20605;-74
2021/12/04 03:49:49;;;;;;;20.88;9.70;;;;;;;1.85;52.60;99088.88;5085273;28;20090;-73
2021/12/04 03:52:18;;;;;;;22.95;9.07;;;;;;;1.88;52.58;99096.53;5085409;28;20109;-74
2021/12/04 03:54:45;;;;;;;17.45;8.93;;;;;;;1.89;52.39;99085.19;5084282;28;20062;-75
2021/12/04 03:57:12;;;;;;;17.65;9.68;;;;;;;1.89;52.57;99082.56;5084511;28;20047;-74
2021/12/04 03:59:42;;;;;;;16.08;9.55;;;;;;;1.94;52.59;99087.53;5085159;28;20048;-74
2021/12/04 04:02:11;;;;;;;12.90;8.40;;;;;;;2.01;52.30;99092.31;5085013;28;20048;-74
2021/12/04 04:04:39;;;;;;;25.52;11.65;;;;;;;2.04;52.30;99081.72;5083385;28;20062;-74
2021/12/04 04:07:07;;;;;;;20.45;8.82;;;;;;;2.12;52.15;99086.50;5085900;28;20036;-73
2021/12/04 04:09:35;;;;;;;20.20;8.75;;;;;;;2.18;52.16;99080.97;5084839;28;20055;-74
2021/12/04 04:12:02;;;;;;;19.75;9.00;;;;;;;2.26;52.06;99075.31;5085123;28;20040;-74
2021/12/04 04:14:29;;;;;;;20.80;9.43;;;;;;;2.29;51.95;99072.53;5085308;28;20054;-76
2021/12/04 04:16:57;;;;;;;18.17;9.02;;;;;;;2.32;51.97;99071.50;5084079;28;20044;-73
2021/12/04 04:19:25;;;;;;;16.27;8.75;;;;;;;2.35;51.81;99074.78;5085724;28;20056;-73
2021/12/04 04:21:56;;;;;;;20.48;9.23;;;;;;;2.37;51.88;99066.88;5085220;28;20094;-74
2021/12/04 04:24:25;;;;;;;18.35;8.75;;;;;;;2.37;51.92;99059.88;5085728;28;20072;-74
2021/12/04 04:26:52;;;;;;;22.92;9.13;;;;;;;2.37;51.83;99059.88;5084807;28;20040;-74
2021/12/04 04:29:19;;;;;;;20.88;9.80;;;;;;;2.40;51.92;99054.50;5084809;28;20062;-75
2021/12/04 04:31:47;;;;;;;18.70;9.40;;;;;;;2.41;51.76;99052.72;5084663;28;20495;-76
2021/12/04 04:34:21;;;;;;;21.95;9.60;;;;;;;2.48;51.89;99060.13;5087719;28;20060;-74
2021/12/04 04:37:00;;;;;;;15.88;9.15;;;;;;;2.52;51.93;99055.56;5087403;28;20063;-74
2021/12/04 04:39:58;;;;;;;16.95;8.45;;;;;;;2.61;51.65;99051.56;5089106;28;20048;-75
2021/12/04 04:59:14;;;;;;;13.25;6.57;;;;;;;2.77;51.65;99031.47;5084666;28;20129;-74
2021/12/04 05:02:01;;;;;;;12.15;6.13;;;;;;;2.80;51.53;99031.28;5084493;28;20052;-74
2021/12/04 05:12:50;;;;;;;18.50;8.32;;;;;;;2.80;51.49;99020.84;5082779;28;20051;-77
2021/12/04 05:15:21;;;;;;;;;;;;;;;2.99;51.22;99014.53;5084662;28;20044;-74
2021/12/04 05:18:07;;;;;;;13.90;6.60;;;;;;;2.81;51.35;99006.03;5084135;28;20018;-74
2021/12/04 05:20:36;;;;;;;14.88;7.70;;;;;;;2.79;51.43;99006.16;5083821;28;20152;-74
2021/12/04 05:23:03;;;;;;;14.80;8.45;;;;;;;2.80;51.53;99015.66;5083818;28;20068;-74
2021/12/04 05:25:31;;;;;;;19.33;8.18;;;;;;;2.86;51.57;99004.88;5084168;28;20507;-74
2021/12/04 05:27:59;;;;;;;15.02;6.82;;;;;;;2.93;51.29;99004.47;5085169;28;20396;-73
2021/12/04 05:30:26;;;;;;;16.05;8.38;;;;;;;2.98;51.28;99002.44;5087812;28;20054;-75
2021/12/04 05:32:53;;;;;;;12.57;6.88;;;;;;;2.98;51.29;98998.03;5087738;28;20048;-74
2021/12/04 05:35:20;;;;;;;11.68;6.80;;;;;;;3.03;51.14;99003.00;5084692;28;20059;-75
2021/12/04 05:37:48;;;;;;;14.15;6.10;;;;;;;3.05;50.86;98996.72;5086445;28;20048;-75
2021/12/04 05:40:16;;;;;;;12.65;6.72;;;;;;;3.08;51.16;98993.13;5087262;28;20461;-73
2021/12/04 05:42:43;;;;;;;18.00;7.47;;;;;;;3.12;50.94;98997.19;5086464;28;20649;-73
2021/12/04 05:45:18;;;;;;;16.35;8.23;;;;;;;3.17;50.86;98996.91;5086744;28;20048;-73
2021/12/04 05:47:49;;;;;;;12.47;6.90;;;;;;;3.18;50.81;98995.97;5086599;28;20052;-74
2021/12/04 05:50:34;;;;;;;16.52;7.93;;;;;;;3.18;50.69;98993.38;5086585;28;20912;-75
2021/12/04 05:53:14;;;;;;;16.48;7.40;;;;;;;3.23;50.62;98999.97;5086897;28;20408;-75
2021/12/04 05:55:51;;;;;;;18.08;7.95;;;;;;;3.21;50.58;98996.63;5085632;28;20063;-74
2021/12/04 05:58:18;;;;;;;12.13;7.55;;;;;;;3.20;50.86;98996.72;5086247;28;20167;-75
2021/12/04 06:00:46;;;;;;;14.57;7.63;;;;;;;3.17;50.74;98995.16;5086990;28;20048;-74
2021/12/04 06:03:13;;;;;;;17.23;7.72;;;;;;;3.15;50.89;98993.56;5085685;28;20143;-74
2021/12/04 06:05:40;;;;;;;10.85;6.40;;;;;;;3.13;51.02;98995.41;5084873;28;20510;-73
2021/12/04 06:08:07;;;;;;;12.57;7.10;;;;;;;3.12;51.01;98997.19;5087192;28;20048;-75
2021/12/04 06:10:34;;;;;;;13.15;6.45;;;;;;;3.14;50.68;98997.94;5085825;28;20138;-74
2021/12/04 06:13:01;;;;;;;12.60;5.53;;;;;;;3.14;50.72;98991.91;5085847;28;20047;-76
2021/12/04 06:15:28;;;;;;;16.38;6.82;;;;;;;3.15;50.40;98986.59;5086079;28;20131;-74
2021/12/04 06:17:56;;;;;;;16.70;6.45;;;;;;;3.15;50.82;98994.41;5084571;28;20047;-75
2021/12/04 06:23:08;;;;;;;10.85;7.03;;;;;;;3.21;50.64;98991.41;5086518;28;20454;-75
2021/12/04 06:25:35;;;;;;;14.70;6.45;;;;;;;3.19;50.51;98985.44;5085709;28;20168;-75
2021/12/04 06:28:03;;;;;;;16.15;9.40;;;;;;;3.24;50.63;98995.59;5086954;28;20241;-74
2021/12/04 06:30:35;;;;;;;12.98;6.95;;;;;;;3.24;50.57;98996.44;5086363;28;20123;-74
2021/12/04 06:33:04;;;;;;;14.15;7.65;;;;;;;3.27;50.34;99002.41;5084275;28;20044;-74
2021/12/04 06:35:32;;;;;;;15.05;7.50;;;;;;;3.31;50.46;98996.88;5084856;28;20416;-74
2021/12/04 06:38:00;;;;;;;13.77;7.32;;;;;;;3.37;50.35;99006.94;5084607;28;20048;-74
2021/12/04 06:40:27;;;;;;;13.70;7.75;;;;;;;3.43;50.19;99009.16;5084317;28;20537;-75
2021/12/04 06:42:56;;;;;;;13.35;7.35;;;;;;;3.50;50.13;99000.97;5085665;28;20075;-78
2021/12/04 06:45:23;;;;;;;11.88;7.05;;;;;;;3.51;50.00;98998.25;5084377;28;20052;-75
2021/12/04 06:47:53;;;;;;;8.88;5.45;;;;;;;3.57;49.92;99000.47;5083527;28;20051;-75
2021/12/04 06:50:30;;;;;;;15.68;6.60;;;;;;;3.59;49.91;98998.59;5085311;28;20598;-75
2021/12/04 06:52:59;;;;;;;8.75;5.50;;;;;;;3.71;49.71;99001.34;5083687;28;20133;-76
2021/12/04 06:55:29;;;;;;;15.65;7.30;;;;;;;3.78;49.50;99002.63;5085119;28;20048;-74
2021/12/04 06:57:57;;;;;;;14.00;6.50;;;;;;;3.81;49.48;98992.81;5082989;28;20052;-72
2021/12/04 07:00:25;;;;;;;12.95;6.18;;;;;;;3.85;49.44;99006.50;5083570;28;20135;-75
2021/12/04 07:02:52;;;;;;;7.85;4.40;;;;;;;3.90;49.49;99007.06;5084777;28;20090;-74
2021/12/04 07:05:21;;;;;;;16.30;7.88;;;;;;;3.88;49.29;99003.72;5084421;28;20073;-74
2021/12/04 07:07:48;;;;;;;10.98;6.22;;;;;;;3.95;49.36;99010.22;5085887;28;20119;-75
2021/12/04 07:10:15;;;;;;;10.10;5.32;;;;;;;3.98;49.13;98999.56;5084563;28;20040;-74
2021/12/04 07:12:42;;;;;;;10.85;6.15;;;;;;;4.05;49.19;99015.66;5082779;28;20044;-74
2021/12/04 07:15:12;;;;;;;15.07;8.43;;;;;;;4.09;49.06;99000.63;5082165;28;20044;-75
2021/12/04 07:17:42;;;;;;;16.02;7.68;;;;;;;4.15;48.82;99002.84;5082509;28;20123;-76
2021/12/04 07:20:11;;;;;;;13.68;6.82;;;;;;;4.20;48.86;98995.53;5082773;28;20040;-74
2021/12/04 07:22:39;;;;;;;12.63;6.28;;;;;;;4.23;48.58;98997.94;5082073;28;20410;-74
2021/12/04 07:25:07;;;;;;;10.63;6.45;;;;;;;4.23;48.59;98990.09;5082468;28;20716;-77
2021/12/04 07:27:34;;;;;;;11.27;6.53;;;;;;;4.24;48.70;98989.16;5081371;28;20135;-73
2021/12/04 07:30:01;;;;;;;12.35;6.60;;;;;;;4.31;48.46;98984.38;5081352;28;20245;-73
2021/12/04 07:32:29;;;;;;;14.77;7.65;;;;;;;4.37;48.36;98983.94;5082740;28;20431;-73
2021/12/04 07:34:56;;;;;;;9.65;5.80;;;;;;;4.39;48.38;98988.16;5081434;28;20051;-74
2021/12/04 07:37:23;;;;;;;13.77;8.43;;;;;;;4.36;48.28;98979.69;5081299;28;20070;-74
2021/12/04 07:39:52;;;;;;;14.43;7.22;;;;;;;4.37;48.45;98976.09;5082947;28;20090;-74
2021/12/04 07:42:19;;;;;;;13.55;7.38;;;;;;;4.38;48.21;98986.47;5081026;28;20044;-75
2021/12/04 07:44:46;;;;;;;11.88;7.10;;;;;;;4.38;47.98;98983.03;5080277;28;20050;-75
2021/12/04 07:47:14;;;;;;;10.85;6.45;;;;;;;4.42;47.98;98981.03;5083042;28;20048;-74
2021/12/04 07:49:41;;;;;;;12.35;5.07;;;;;;;4.47;48.27;98968.50;5081332;28;20044;-76
2021/12/04 07:52:09;;;;;;;14.85;7.35;;;;;;;4.54;47.97;98964.53;5079252;28;20468;-74
2021/12/04 07:54:37;;;;;;;16.15;7.00;;;;;;;4.56;47.90;98962.63;5081083;28;20044;-74
2021/12/04 07:57:05;;;;;;;9.80;6.75;;;;;;;4.62;47.79;98964.81;5080668;28;20056;-75
2021/12/04 07:59:33;;;;;;;16.70;7.43;;;;;;;4.61;47.71;98965.78;5081940;28;20248;-77
2021/12/04 08:01:59;;;;;;;12.90;7.00;;;;;;;4.65;47.68;98962.00;5085097;28;20044;-73
2021/12/04 08:04:27;;;;;;;15.73;8.50;;;;;;;4.71;47.58;98960.75;5081155;28;20050;-74
2021/12/04 08:06:55;;;;;;;11.95;6.63;;;;;;;4.73;47.49;98974.53;5080541;28;20119;-74
2021/12/04 08:09:22;;;;;;;16.77;8.15;;;;;;;4.74;47.57;98965.78;5084451;28;20040;-72
2021/12/04 08:11:50;;;;;;;12.75;7.07;;;;;;;4.79;47.40;98972.34;5085012;28;20052;-72
2021/12/04 08:14:19;;;;;;;15.13;7.47;;;;;;;4.77;47.11;98974.25;5083735;28;20128;-73
2021/12/04 08:16:47;;;;;;;15.57;7.43;;;;;;;4.79;47.45;98972.34;5085337;28;20060;-71
2021/12/04 08:19:14;;;;;;;12.30;6.53;;;;;;;4.87;47.28;98978.84;5084122;28;20052;-75
2021/12/04 08:21:41;;;;;;;17.65;6.85;;;;;;;4.95;47.28;98973.88;5085071;28;20044;-74
2021/12/04 08:24:09;;;;;;;11.73;6.38;;;;;;;4.96;47.25;98975.56;5085769;28;20052;-72
2021/12/04 08:26:38;;;;;;;17.27;9.23;;;;;;;5.01;47.24;98977.88;5083782;28;20047;-74
2021/12/04 08:29:06;;;;;;;14.27;7.32;;;;;;;4.97;46.94;98972.03;5084682;28;20083;-73
2021/12/04 08:31:34;;;;;;;14.02;7.13;;;;;;;5.02;47.18;98975.13;5084333;28;20048;-73
2021/12/04 08:34:02;;;;;;;15.00;9.13;;;;;;;5.02;47.03;98979.53;5083028;28;20044;-74
2021/12/04 08:36:29;;;;;;;14.77;7.80;;;;;;;5.07;46.93;98980.88;5081990;28;20081;-73
2021/12/04 08:38:56;;;;;;;15.85;7.60;;;;;;;5.14;46.92;98970.81;5085126;28;20056;-75
2021/12/04 08:41:23;;;;;;;14.05;7.18;;;;;;;5.19;46.79;98970.53;5083235;28;20058;-73
2021/12/04 08:43:52;;;;;;;11.88;6.70;;;;;;;5.20;46.68;98977.41;5086277;28;20050;-76
2021/12/04 08:46:20;;;;;;;11.20;6.43;;;;;;;5.22;46.81;98976.38;5085001;28;20040;-74
2021/12/04 08:48:50;;;;;;;15.27;8.20;;;;;;;5.25;46.68;98972.69;5083270;28;20048;-73
2021/12/04 08:51:18;;;;;;;13.18;7.75;;;;;;;5.28;46.64;98969.84;5083944;28;20151;-74
2021/12/04 08:53:45;;;;;;;14.70;8.27;;;;;;;5.26;46.68;98966.53;5083894;28;20067;-75
2021/12/04 08:56:12;;;;;;;15.25;6.60;;;;;;;5.27;46.62;98966.38;5081539;28;20050;-72
2021/12/04 08:58:41;;;;;;;11.50;6.82;;;;;;;5.24;46.57;98969.25;5083473;28;20411;-74
2021/12/04 09:01:12;;;;;;;12.10;7.10;;;;;;;5.27;46.69;98966.38;5083397;28;20076;-74
2021/12/04 09:03:44;;;;;;;11.93;6.65;;;;;;;5.35;46.48;98961.44;5084996;28;20222;-75
2021/12/04 09:06:13;;;;;;;11.27;7.43;;;;;;;5.45;46.31;98956.38;5083467;28;20081;-72
2021/12/04 09:08:40;;;;;;;10.68;6.03;;;;;;;5.47;46.17;98958.88;5084097;28;20048;-73
2021/12/04 09:11:12;;;;;;;14.45;7.88;;;;;;;5.49;46.13;98957.84;5084873;28;20461;-74
2021/12/04 09:13:40;;;;;;;21.98;7.65;;;;;;;5.55;46.11;98962.63;5084168;28;20135;-72
2021/12/04 09:16:08;;;;;;;12.98;7.70;;;;;;;5.56;46.02;98968.69;5083051;28;20612;-73
2021/12/04 09:18:35;;;;;;;16.73;8.90;;;;;;;5.60;45.98;98964.94;5083282;28;20141;-74
2021/12/04 09:21:04;;;;;;;15.95;8.98;;;;;;;5.66;45.81;98961.84;5082862;28;20048;-75
2021/12/04 09:23:35;;;;;;;16.55;9.15;;;;;;;5.65;45.81;98959.34;5082289;28;20044;-73
2021/12/04 09:26:04;;;;;;;11.95;8.57;;;;;;;5.66;45.84;98947.94;5082153;28;20344;-73
2021/12/04 09:28:41;;;;;;;17.30;9.45;;;;;;;5.76;45.70;98948.91;5082705;28;20132;-73
2021/12/04 09:31:28;;;;;;;14.75;8.57;;;;;;;5.84;45.47;98946.56;5082759;28;20094;-73
2021/12/04 10:01:44;;;;;;;15.30;8.55;;;;;;;6.18;45.03;98935.41;5076407;28;19970;-73
2021/12/04 10:04:34;;;;;;;16.17;7.60;;;;;;;6.14;45.25;98932.16;5078458;28;20135;-71
2021/12/04 10:13:02;;;;;;;15.77;8.85;;;;;;;6.20;45.08;98923.00;5075778;28;20079;-71
2021/12/04 10:21:13;;;;;;;14.95;7.78;;;;;;;6.28;44.96;98910.97;5076838;28;20054;-72
2021/12/04 10:24:01;;;;;;;16.08;8.85;;;;;;;6.34;44.84;98908.81;5073466;28;20051;-75
2021/12/04 10:34:50;;;;;;;18.75;8.77;;;;;;;6.58;44.59;98906.13;5025838;28;20053;-73
2021/12/04 10:37:23;;;;;;;14.50;7.55;;;;;;;6.53;44.78;98898.59;5022425;28;20046;-73
2021/12/04 10:39:51;;;;;;;16.90;7.35;;;;;;;6.57;44.61;98907.06;5020046;28;20187;-73
2021/12/04 10:42:23;;;;;;;14.90;7.35;;;;;;;6.56;44.66;98895.72;5023514;28;20551;-72
2021/12/04 10:44:55;;;;;;;15.13;7.43;;;;;;;6.59;44.56;98890.25;5025125;28;20607;-73
2021/12/04 10:47:24;;;;;;;15.35;10.35;;;;;;;6.54;44.29;98892.41;5016399;28;20611;-72
2021/12/04 10:50:04;;;;;;;14.55;8.05;;;;;;;6.50;44.27;98893.59;5016167;28;20042;-76
2021/12/04 10:52:44;;;;;;;17.30;8.85;;;;;;;6.50;44.39;98885.72;5015412;28;20045;-70
2021/12/04 10:55:16;;;;;;;14.40;8.05;;;;;;;6.49;44.33;98887.50;5021373;28;20061;-72
2021/12/04 11:00:39;;;;;;;12.98;7.32;;;;;;;6.56;44.39;98879.16;5026846;28;20089;-72
2021/12/04 11:03:27;;;;;;;15.30;7.32;;;;;;;6.54;44.35;98883.72;5025108;28;20079;-73
2021/12/04 11:23:08;;;;;;;22.83;9.02;;;;;;;6.53;44.30;98874.97;4938252;28;20091;-72
2021/12/04 11:26:05;;;;;;;18.67;9.57;;;;;;;6.56;44.23;98879.16;4935751;28;20051;-72
2021/12/04 11:28:50;;;;;;;16.95;9.75;;;;;;;6.54;44.06;98883.72;4917401;29;20156;-74
2021/12/04 11:37:02;;;;;;;19.67;9.77;;;;;;;6.49;44.39;98873.56;4931695;29;20103;-71
2021/12/04 11:42:28;;;;;;;18.23;9.05;;;;;;;6.59;44.27;98864.03;4879428;29;20071;-71
2021/12/04 11:45:09;;;;;;;18.73;9.68;;;;;;;6.56;44.35;98869.50;4886729;28;20056;-73
2021/12/04 11:47:38;;;;;;;18.70;9.23;;;;;;;6.56;44.44;98873.94;4954812;28;20171;-72
2021/12/04 11:50:18;;;;;;;18.80;9.30;;;;;;;6.57;44.44;98865.94;5012880;28;20061;-74
2021/12/04 11:52:47;;;;;;;12.48;7.93;;;;;;;6.58;44.39;98874.63;5013654;28;20715;-72
2021/12/04 11:55:19;;;;;;;15.95;8.52;;;;;;;6.61;44.34;98866.50;5013860;28;20072;-72
2021/12/04 11:57:47;;;;;;;23.25;12.65;;;;;;;6.62;44.36;98874.25;5011791;28;20662;-71
2021/12/04 12:00:21;;;;;;;22.38;10.38;;;;;;;6.63;44.44;98869.88;5011603;28;20049;-73
2021/12/04 12:02:49;;;;;;;17.20;9.40;;;;;;;6.65;44.55;98875.81;5011719;28;20144;-72
2021/12/04 12:05:20;;;;;;;13.07;7.57;;;;;;;6.62;44.44;98869.00;5009327;28;20045;-74
2021/12/04 12:07:55;;;;;;;20.48;9.35;;;;;;;6.57;44.64;98878.19;5011799;28;20079;-73
2021/12/04 12:10:26;;;;;;;15.57;9.18;;;;;;;6.51;44.64;98869.84;5011536;28;20167;-72
2021/12/04 12:12:56;;;;;;;19.90;8.88;;;;;;;6.51;44.67;98871.66;5009656;28;20053;-73
2021/12/04 12:15:30;;;;;;;19.92;10.48;;;;;;;6.53;44.69;98872.34;5010916;28;20119;-73
2021/12/04 12:17:58;;;;;;;18.75;10.35;;;;;;;6.51;44.66;98867.22;5027263;28;20056;-72
2021/12/04 12:20:41;;;;;;;16.70;10.38;;;;;;;6.52;44.82;98865.47;5053666;28;20076;-73
2021/12/04 12:23:11;;;;;;;17.60;10.50;;;;;;;6.55;44.72;98865.19;5054214;28;20063;-74
2021/12/04 12:25:56;;;;;;;18.42;10.65;;;;;;;6.54;44.68;98870.59;5054205;28;20056;-72
2021/12/04 12:34:16;;;;;;;26.45;10.70;;;;;;;6.46;44.99;98868.53;5053210;28;20087;-72
2021/12/04 12:36:43;;;;;;;23.90;11.25;;;;;;;6.41;45.03;98866.28;5050144;28;20546;-72
2021/12/04 12:39:18;;;;;;;19.20;12.52;;;;;;;6.41;45.12;98871.53;5055481;28;20040;-72
2021/12/04 12:41:49;;;;;;;20.97;12.20;;;;;;;6.40;45.13;98863.78;5055965;28;20114;-73
2021/12/04 12:44:18;;;;;;;23.98;13.50;;;;;;;6.35;45.10;98866.75;5054753;28;20054;-74
2021/12/04 12:46:48;;;;;;;23.27;11.88;;;;;;;6.38;45.16;98873.56;5057312;28;20106;-74
2021/12/04 12:49:22;;;;;;;20.88;11.45;;;;;;;6.35;45.15;98869.38;5054680;28;20049;-73
2021/12/04 12:51:58;;;;;;;16.40;10.50;;;;;;;6.32;45.26;98872.25;5055244;28;20048;-72
2021/12/04 12:54:34;;;;;;;22.27;11.20;;;;;;;6.27;45.36;98872.59;5054907;28;20101;-73
2021/12/04 12:57:07;;;;;;;23.38;12.10;;;;;;;6.28;45.36;98878.66;5059306;28;20059;-71
2021/12/04 12:59:44;;;;;;;20.23;11.20;;;;;;;6.25;45.36;98879.75;5058116;28;20707;-71
2021/12/04 13:13:29;;;;;;;17.65;8.52;;;;;;;5.70;46.97;98887.31;5058046;28;20072;-73
2021/12/04 13:16:04;;;;;;;20.25;9.95;;;;;;;5.49;47.72;98889.75;5057193;28;20063;-71
2021/12/04 13:18:33;;;;;;;22.02;10.77;;;;;;;5.30;48.35;98898.09;5056896;28;20118;-74
2021/12/04 13:21:03;;;;;;;25.70;14.40;;;;;;;5.16;49.05;98901.72;5058760;28;20057;-73
2021/12/04 13:23:32;;;;;;;39.38;19.85;;;;;;;5.10;49.32;98893.47;5056848;28;20626;-74
2021/12/04 13:26:04;;;;;;;26.63;14.70;;;;;;;5.07;49.88;98898.94;5055607;28;20059;-72
2021/12/04 13:28:36;;;;;;;31.83;16.90;;;;;;;5.00;50.15;98903.75;5056933;28;20462;-73
2021/12/04 13:31:06;;;;;;;34.22;17.90;;;;;;;4.77;50.82;98892.28;5056529;28;20045;-72
2021/12/04 13:33:36;;;;;;;36.58;18.50;;;;;;;4.71;51.40;98892.75;5055535;28;20076;-72
2021/12/04 13:36:11;;;;;;;31.20;16.55;;;;;;;4.59;51.77;98894.41;5056047;28;20072;-76
2021/12/04 13:38:40;;;;;;;26.98;17.02;;;;;;;4.59;51.84;98892.66;5057142;28;20056;-75
2021/12/04 13:41:07;;;;;;;26.90;16.00;;;;;;;4.47;52.28;98890.06;5057548;28;20074;-71
2021/12/04 13:43:34;;;;;;;24.92;13.63;;;;;;;4.45;52.35;98890.16;5058079;28;20052;-72
2021/12/04 13:46:03;;;;;;;32.55;16.58;;;;;;;4.48;52.61;98889.09;5059414;28;20048;-73
2021/12/04 13:48:32;;;;;;;31.88;17.05;;;;;;;4.48;52.49;98882.09;5056451;28;20056;-74
2021/12/04 13:51:00;;;;;;;35.78;19.52;;;;;;;4.37;53.03;98888.06;5056759;28;20048;-71
2021/12/04 13:53:30;;;;;;;33.75;18.58;;;;;;;4.45;53.03;98882.31;5058120;28;20132;-73
2021/12/04 13:56:03;;;;;;;23.73;13.82;;;;;;;4.43;52.99;98884.22;5057982;28;20049;-72
2021/12/04 13:58:30;;;;;;;33.17;16.55;;;;;;;4.43;53.21;98881.59;5057606;28;20064;-74
2021/12/04 14:01:00;;;;;;;29.98;16.40;;;;;;;4.44;53.48;98877.19;5059747;28;20650;-74
2021/12/04 14:03:31;;;;;;;26.35;15.32;;;;;;;4.41;53.53;98870.38;5058695;28;20044;-73